sensor_id;sensor_type;location;lat;lon;timestamp;P1;durP1;ratioP1;P2;durP2;ratioP2
35380;SDS011;21486;51.916;8.378;2023-05-07T00:33:01;25.45;;;16.80;;
35380;SDS011;21486;51.916;8.378;2023-05-07T00:35:28;25.98;;;15.10;;
35380;SDS011;21486;51.916;8.378;2023-05-07T00:37:54;23.73;;;14.73;;
35380;SDS011;21486;51.916;8.378;2023-05-07T00:40:20;26.70;;;18.60;;
35380;SDS011;21486;51.916;8.378;2023-05-07T00:42:46;18.67;;;13.43;;
35380;SDS011;21486;51.916;8.378;2023-05-07T00:45:12;26.17;;;15.27;;
35380;SDS011;21486;51.916;8.378;2023-05-07T00:47:41;24.50;;;13.85;;
35380;SDS011;21486;51.916;8.378;2023-05-07T00:50:08;22.17;;;14.83;;
35380;SDS011;21486;51.916;8.378;2023-05-07T00:52:37;22.60;;;15.15;;
35380;SDS011;21486;51.916;8.378;2023-05-07T00:55:04;22.23;;;14.82;;
35380;SDS011;21486;51.916;8.378;2023-05-07T00:57:37;20.65;;;14.00;;
35380;SDS011;21486;51.916;8.378;2023-05-07T01:00:05;22.50;;;14.80;;
35380;SDS011;21486;51.916;8.378;2023-05-07T01:02:33;20.45;;;13.65;;
35380;SDS011;21486;51.916;8.378;2023-05-07T01:05:02;20.20;;;14.40;;
35380;SDS011;21486;51.916;8.378;2023-05-07T01:07:31;20.45;;;13.98;;
35380;SDS011;21486;51.916;8.378;2023-05-07T01:09:57;21.42;;;14.93;;
35380;SDS011;21486;51.916;8.378;2023-05-07T01:12:23;22.13;;;14.75;;
35380;SDS011;21486;51.916;8.378;2023-05-07T01:14:50;21.55;;;15.82;;
35380;SDS011;21486;51.916;8.378;2023-05-07T01:17:16;21.50;;;14.10;;
35380;SDS011;21486;51.916;8.378;2023-05-07T01:19:42;22.53;;;16.20;;
35380;SDS011;21486;51.916;8.378;2023-05-07T01:22:08;22.20;;;15.47;;
35380;SDS011;21486;51.916;8.378;2023-05-07T01:24:36;22.55;;;15.55;;
35380;SDS011;21486;51.916;8.378;2023-05-07T01:27:02;20.50;;;14.48;;
35380;SDS011;21486;51.916;8.378;2023-05-07T01:29:28;21.13;;;14.85;;
35380;SDS011;21486;51.916;8.378;2023-05-07T01:31:54;22.27;;;14.68;;
35380;SDS011;21486;51.916;8.378;2023-05-07T01:34:25;20.42;;;14.07;;
35380;SDS011;21486;51.916;8.378;2023-05-07T01:36:52;20.20;;;14.25;;
35380;SDS011;21486;51.916;8.378;2023-05-07T01:39:20;22.00;;;14.57;;
35380;SDS011;21486;51.916;8.378;2023-05-07T01:41:48;21.30;;;13.98;;
35380;SDS011;21486;51.916;8.378;2023-05-07T01:44:14;21.23;;;14.38;;
35380;SDS011;21486;51.916;8.378;2023-05-07T01:46:40;23.65;;;15.27;;
35380;SDS011;21486;51.916;8.378;2023-05-07T01:49:05;22.65;;;15.27;;
35380;SDS011;21486;51.916;8.378;2023-05-07T01:51:31;23.43;;;15.40;;
35380;SDS011;21486;51.916;8.378;2023-05-07T01:53:57;26.48;;;16.73;;
35380;SDS011;21486;51.916;8.378;2023-05-07T01:56:24;22.27;;;15.20;;
35380;SDS011;21486;51.916;8.378;2023-05-07T01:58:50;24.67;;;16.15;;
35380;SDS011;21486;51.916;8.378;2023-05-07T02:01:16;23.07;;;15.83;;
35380;SDS011;21486;51.916;8.378;2023-05-07T02:03:43;26.63;;;17.17;;
35380;SDS011;21486;51.916;8.378;2023-05-07T02:06:08;25.13;;;16.60;;
35380;SDS011;21486;51.916;8.378;2023-05-07T02:08:34;24.73;;;16.70;;
35380;SDS011;21486;51.916;8.378;2023-05-07T02:11:00;23.65;;;16.45;;
35380;SDS011;21486;51.916;8.378;2023-05-07T02:13:29;22.73;;;15.93;;
35380;SDS011;21486;51.916;8.378;2023-05-07T02:15:57;28.42;;;16.60;;
35380;SDS011;21486;51.916;8.378;2023-05-07T02:18:23;25.00;;;16.63;;
35380;SDS011;21486;51.916;8.378;2023-05-07T02:20:48;22.90;;;16.60;;
35380;SDS011;21486;51.916;8.378;2023-05-07T02:23:14;25.47;;;16.97;;
35380;SDS011;21486;51.916;8.378;2023-05-07T02:25:39;24.63;;;17.17;;
35380;SDS011;21486;51.916;8.378;2023-05-07T02:28:05;28.40;;;17.65;;
35380;SDS011;21486;51.916;8.378;2023-05-07T02:30:31;28.00;;;17.50;;
35380;SDS011;21486;51.916;8.378;2023-05-07T02:32:56;26.70;;;17.87;;
35380;SDS011;21486;51.916;8.378;2023-05-07T02:35:23;26.58;;;17.08;;
35380;SDS011;21486;51.916;8.378;2023-05-07T02:37:49;27.60;;;18.17;;
35380;SDS011;21486;51.916;8.378;2023-05-07T02:40:15;25.60;;;18.13;;
35380;SDS011;21486;51.916;8.378;2023-05-07T02:42:40;25.52;;;17.80;;
35380;SDS011;21486;51.916;8.378;2023-05-07T02:47:34;26.43;;;17.90;;
35380;SDS011;21486;51.916;8.378;2023-05-07T02:49:59;28.30;;;18.00;;
35380;SDS011;21486;51.916;8.378;2023-05-07T02:52:25;26.27;;;18.30;;
35380;SDS011;21486;51.916;8.378;2023-05-07T02:54:50;26.70;;;18.50;;
35380;SDS011;21486;51.916;8.378;2023-05-07T02:57:16;28.90;;;18.83;;
35380;SDS011;21486;51.916;8.378;2023-05-07T02:59:42;25.83;;;18.38;;
35380;SDS011;21486;51.916;8.378;2023-05-07T03:02:08;26.67;;;18.47;;
35380;SDS011;21486;51.916;8.378;2023-05-07T03:04:33;26.20;;;18.83;;
35380;SDS011;21486;51.916;8.378;2023-05-07T03:06:59;26.80;;;18.50;;
35380;SDS011;21486;51.916;8.378;2023-05-07T03:09:25;26.52;;;18.73;;
35380;SDS011;21486;51.916;8.378;2023-05-07T03:11:51;27.03;;;18.60;;
35380;SDS011;21486;51.916;8.378;2023-05-07T03:14:16;27.70;;;18.85;;
35380;SDS011;21486;51.916;8.378;2023-05-07T03:16:42;31.37;;;19.37;;
35380;SDS011;21486;51.916;8.378;2023-05-07T03:19:07;28.20;;;18.67;;
35380;SDS011;21486;51.916;8.378;2023-05-07T03:21:33;29.80;;;19.23;;
35380;SDS011;21486;51.916;8.378;2023-05-07T03:23:59;28.65;;;20.23;;
35380;SDS011;21486;51.916;8.378;2023-05-07T03:26:25;30.30;;;20.15;;
35380;SDS011;21486;51.916;8.378;2023-05-07T03:28:50;27.50;;;18.63;;
35380;SDS011;21486;51.916;8.378;2023-05-07T03:31:16;28.88;;;18.85;;
35380;SDS011;21486;51.916;8.378;2023-05-07T03:33:52;28.05;;;19.10;;
35380;SDS011;21486;51.916;8.378;2023-05-07T03:36:21;27.92;;;20.00;;
35380;SDS011;21486;51.916;8.378;2023-05-07T03:38:48;29.40;;;19.63;;
35380;SDS011;21486;51.916;8.378;2023-05-07T03:41:14;29.33;;;20.37;;
35380;SDS011;21486;51.916;8.378;2023-05-07T03:43:40;25.60;;;19.07;;
35380;SDS011;21486;51.916;8.378;2023-05-07T03:46:06;28.40;;;19.63;;
35380;SDS011;21486;51.916;8.378;2023-05-07T03:48:31;30.38;;;20.20;;
35380;SDS011;21486;51.916;8.378;2023-05-07T03:50:57;27.65;;;20.20;;
35380;SDS011;21486;51.916;8.378;2023-05-07T03:53:23;32.60;;;21.00;;
35380;SDS011;21486;51.916;8.378;2023-05-07T03:55:49;29.35;;;20.13;;
35380;SDS011;21486;51.916;8.378;2023-05-07T03:58:14;30.63;;;20.73;;
35380;SDS011;21486;51.916;8.378;2023-05-07T04:00:40;29.30;;;20.20;;
35380;SDS011;21486;51.916;8.378;2023-05-07T04:03:06;31.53;;;20.57;;
35380;SDS011;21486;51.916;8.378;2023-05-07T04:05:31;31.93;;;20.10;;
35380;SDS011;21486;51.916;8.378;2023-05-07T04:08:00;30.05;;;19.42;;
35380;SDS011;21486;51.916;8.378;2023-05-07T04:10:27;30.02;;;19.77;;
35380;SDS011;21486;51.916;8.378;2023-05-07T04:12:54;25.52;;;18.63;;
35380;SDS011;21486;51.916;8.378;2023-05-07T04:15:19;34.42;;;20.05;;
35380;SDS011;21486;51.916;8.378;2023-05-07T04:17:45;28.63;;;20.03;;
35380;SDS011;21486;51.916;8.378;2023-05-07T04:20:14;27.87;;;19.77;;
35380;SDS011;21486;51.916;8.378;2023-05-07T04:22:41;27.73;;;19.40;;
35380;SDS011;21486;51.916;8.378;2023-05-07T04:25:07;29.70;;;19.67;;
35380;SDS011;21486;51.916;8.378;2023-05-07T04:27:36;28.83;;;19.87;;
35380;SDS011;21486;51.916;8.378;2023-05-07T04:30:02;30.33;;;19.73;;
35380;SDS011;21486;51.916;8.378;2023-05-07T04:32:29;32.13;;;21.20;;
35380;SDS011;21486;51.916;8.378;2023-05-07T04:34:55;32.33;;;20.77;;
35380;SDS011;21486;51.916;8.378;2023-05-07T04:37:21;27.85;;;20.23;;
35380;SDS011;21486;51.916;8.378;2023-05-07T04:39:47;31.50;;;20.48;;
35380;SDS011;21486;51.916;8.378;2023-05-07T04:42:16;34.67;;;22.92;;
35380;SDS011;21486;51.916;8.378;2023-05-07T04:44:43;28.83;;;20.70;;
35380;SDS011;21486;51.916;8.378;2023-05-07T04:47:09;34.17;;;21.08;;
35380;SDS011;21486;51.916;8.378;2023-05-07T04:49:35;29.42;;;21.25;;
35380;SDS011;21486;51.916;8.378;2023-05-07T04:52:01;30.17;;;20.90;;
35380;SDS011;21486;51.916;8.378;2023-05-07T04:54:28;29.50;;;20.90;;
35380;SDS011;21486;51.916;8.378;2023-05-07T04:56:54;30.75;;;21.00;;
35380;SDS011;21486;51.916;8.378;2023-05-07T04:59:20;33.55;;;21.88;;
35380;SDS011;21486;51.916;8.378;2023-05-07T05:01:45;28.83;;;20.63;;
35380;SDS011;21486;51.916;8.378;2023-05-07T05:04:11;33.67;;;21.07;;
35380;SDS011;21486;51.916;8.378;2023-05-07T05:06:36;33.28;;;22.35;;
35380;SDS011;21486;51.916;8.378;2023-05-07T05:09:02;35.67;;;21.97;;
35380;SDS011;21486;51.916;8.378;2023-05-07T05:11:28;32.53;;;22.08;;
35380;SDS011;21486;51.916;8.378;2023-05-07T05:13:53;32.97;;;21.57;;
35380;SDS011;21486;51.916;8.378;2023-05-07T05:16:19;31.47;;;21.67;;
35380;SDS011;21486;51.916;8.378;2023-05-07T05:18:44;32.53;;;22.42;;
35380;SDS011;21486;51.916;8.378;2023-05-07T05:21:10;29.33;;;21.67;;
35380;SDS011;21486;51.916;8.378;2023-05-07T05:23:35;37.23;;;25.40;;
35380;SDS011;21486;51.916;8.378;2023-05-07T05:26:01;32.75;;;24.00;;
35380;SDS011;21486;51.916;8.378;2023-05-07T05:28:26;33.83;;;23.03;;
35380;SDS011;21486;51.916;8.378;2023-05-07T05:30:53;34.75;;;22.58;;
35380;SDS011;21486;51.916;8.378;2023-05-07T05:33:18;31.67;;;22.35;;
35380;SDS011;21486;51.916;8.378;2023-05-07T05:35:44;33.78;;;22.50;;
35380;SDS011;21486;51.916;8.378;2023-05-07T05:38:10;40.27;;;23.20;;
35380;SDS011;21486;51.916;8.378;2023-05-07T05:40:35;33.13;;;22.73;;
35380;SDS011;21486;51.916;8.378;2023-05-07T05:43:01;32.72;;;22.20;;
35380;SDS011;21486;51.916;8.378;2023-05-07T05:45:26;32.00;;;21.27;;
35380;SDS011;21486;51.916;8.378;2023-05-07T05:47:52;31.87;;;21.70;;
35380;SDS011;21486;51.916;8.378;2023-05-07T05:50:17;30.60;;;21.30;;
35380;SDS011;21486;51.916;8.378;2023-05-07T05:52:43;37.50;;;22.47;;
35380;SDS011;21486;51.916;8.378;2023-05-07T05:55:08;40.97;;;25.90;;
35380;SDS011;21486;51.916;8.378;2023-05-07T05:57:34;31.58;;;21.42;;
35380;SDS011;21486;51.916;8.378;2023-05-07T06:00:01;31.85;;;21.73;;
35380;SDS011;21486;51.916;8.378;2023-05-07T06:02:27;32.78;;;21.75;;
35380;SDS011;21486;51.916;8.378;2023-05-07T06:04:53;31.92;;;21.90;;
35380;SDS011;21486;51.916;8.378;2023-05-07T06:07:18;34.27;;;21.87;;
35380;SDS011;21486;51.916;8.378;2023-05-07T06:09:44;33.27;;;21.30;;
35380;SDS011;21486;51.916;8.378;2023-05-07T06:12:10;31.23;;;21.17;;
35380;SDS011;21486;51.916;8.378;2023-05-07T06:14:35;30.92;;;21.23;;
35380;SDS011;21486;51.916;8.378;2023-05-07T06:17:01;30.93;;;21.67;;
35380;SDS011;21486;51.916;8.378;2023-05-07T06:19:26;33.47;;;21.73;;
35380;SDS011;21486;51.916;8.378;2023-05-07T06:21:53;32.55;;;21.70;;
35380;SDS011;21486;51.916;8.378;2023-05-07T06:24:18;34.23;;;21.50;;
35380;SDS011;21486;51.916;8.378;2023-05-07T06:26:44;30.07;;;20.27;;
35380;SDS011;21486;51.916;8.378;2023-05-07T06:29:09;28.80;;;19.60;;
35380;SDS011;21486;51.916;8.378;2023-05-07T06:31:35;31.52;;;20.27;;
35380;SDS011;21486;51.916;8.378;2023-05-07T06:34:01;32.10;;;20.50;;
35380;SDS011;21486;51.916;8.378;2023-05-07T06:36:27;30.37;;;20.53;;
35380;SDS011;21486;51.916;8.378;2023-05-07T06:38:53;30.40;;;20.08;;
35380;SDS011;21486;51.916;8.378;2023-05-07T06:41:18;31.63;;;20.47;;
35380;SDS011;21486;51.916;8.378;2023-05-07T06:43:45;31.48;;;19.75;;
35380;SDS011;21486;51.916;8.378;2023-05-07T06:46:11;26.95;;;18.92;;
35380;SDS011;21486;51.916;8.378;2023-05-07T06:48:36;27.80;;;19.27;;
35380;SDS011;21486;51.916;8.378;2023-05-07T06:51:02;28.03;;;17.90;;
35380;SDS011;21486;51.916;8.378;2023-05-07T06:53:27;24.40;;;17.52;;
35380;SDS011;21486;51.916;8.378;2023-05-07T06:55:54;28.85;;;18.70;;
35380;SDS011;21486;51.916;8.378;2023-05-07T06:58:20;26.73;;;17.43;;
35380;SDS011;21486;51.916;8.378;2023-05-07T07:00:45;26.40;;;17.77;;
35380;SDS011;21486;51.916;8.378;2023-05-07T07:03:11;29.23;;;18.85;;
35380;SDS011;21486;51.916;8.378;2023-05-07T07:05:36;24.30;;;16.50;;
35380;SDS011;21486;51.916;8.378;2023-05-07T07:08:02;28.37;;;16.63;;
35380;SDS011;21486;51.916;8.378;2023-05-07T07:10:27;25.20;;;17.30;;
35380;SDS011;21486;51.916;8.378;2023-05-07T07:12:53;26.35;;;17.38;;
35380;SDS011;21486;51.916;8.378;2023-05-07T07:15:19;24.70;;;16.80;;
35380;SDS011;21486;51.916;8.378;2023-05-07T07:17:45;24.15;;;17.15;;
35380;SDS011;21486;51.916;8.378;2023-05-07T07:20:11;22.45;;;16.65;;
35380;SDS011;21486;51.916;8.378;2023-05-07T07:22:37;27.55;;;17.50;;
35380;SDS011;21486;51.916;8.378;2023-05-07T07:25:02;25.40;;;17.20;;
35380;SDS011;21486;51.916;8.378;2023-05-07T07:27:28;27.97;;;18.90;;
35380;SDS011;21486;51.916;8.378;2023-05-07T07:29:54;27.02;;;17.90;;
35380;SDS011;21486;51.916;8.378;2023-05-07T07:32:19;33.80;;;21.92;;
35380;SDS011;21486;51.916;8.378;2023-05-07T07:34:45;28.53;;;18.83;;
35380;SDS011;21486;51.916;8.378;2023-05-07T07:37:11;26.27;;;16.93;;
35380;SDS011;21486;51.916;8.378;2023-05-07T07:39:36;34.08;;;19.58;;
35380;SDS011;21486;51.916;8.378;2023-05-07T07:42:06;24.00;;;17.23;;
35380;SDS011;21486;51.916;8.378;2023-05-07T07:44:31;23.87;;;16.20;;
35380;SDS011;21486;51.916;8.378;2023-05-07T07:46:57;23.42;;;16.52;;
35380;SDS011;21486;51.916;8.378;2023-05-07T07:49:22;36.77;;;20.73;;
35380;SDS011;21486;51.916;8.378;2023-05-07T07:51:48;27.67;;;18.60;;
35380;SDS011;21486;51.916;8.378;2023-05-07T07:54:13;25.42;;;16.75;;
35380;SDS011;21486;51.916;8.378;2023-05-07T07:56:39;21.23;;;14.93;;
35380;SDS011;21486;51.916;8.378;2023-05-07T07:59:04;21.53;;;15.03;;
35380;SDS011;21486;51.916;8.378;2023-05-07T08:01:30;22.15;;;14.80;;
35380;SDS011;21486;51.916;8.378;2023-05-07T08:03:56;19.98;;;14.05;;
35380;SDS011;21486;51.916;8.378;2023-05-07T08:06:23;19.52;;;13.60;;
35380;SDS011;21486;51.916;8.378;2023-05-07T08:08:50;18.52;;;13.70;;
35380;SDS011;21486;51.916;8.378;2023-05-07T08:11:16;21.67;;;14.57;;
35380;SDS011;21486;51.916;8.378;2023-05-07T08:13:42;20.30;;;13.63;;
35380;SDS011;21486;51.916;8.378;2023-05-07T08:16:08;18.83;;;13.75;;
35380;SDS011;21486;51.916;8.378;2023-05-07T08:18:33;21.48;;;13.63;;
35380;SDS011;21486;51.916;8.378;2023-05-07T08:20:59;19.10;;;13.60;;
35380;SDS011;21486;51.916;8.378;2023-05-07T08:23:24;18.05;;;12.60;;
35380;SDS011;21486;51.916;8.378;2023-05-07T08:25:50;18.60;;;13.05;;
35380;SDS011;21486;51.916;8.378;2023-05-07T08:28:17;18.37;;;12.57;;
35380;SDS011;21486;51.916;8.378;2023-05-07T08:30:42;17.37;;;12.20;;
35380;SDS011;21486;51.916;8.378;2023-05-07T08:33:08;15.63;;;11.82;;
35380;SDS011;21486;51.916;8.378;2023-05-07T08:35:34;17.33;;;11.88;;
35380;SDS011;21486;51.916;8.378;2023-05-07T08:38:00;15.77;;;11.85;;
35380;SDS011;21486;51.916;8.378;2023-05-07T08:40:26;14.27;;;10.77;;
35380;SDS011;21486;51.916;8.378;2023-05-07T08:42:52;15.57;;;11.27;;
35380;SDS011;21486;51.916;8.378;2023-05-07T08:45:19;16.52;;;11.38;;
35380;SDS011;21486;51.916;8.378;2023-05-07T08:47:52;14.93;;;11.57;;
35380;SDS011;21486;51.916;8.378;2023-05-07T08:50:23;17.53;;;12.47;;
35380;SDS011;21486;51.916;8.378;2023-05-07T08:52:49;15.10;;;10.63;;
35380;SDS011;21486;51.916;8.378;2023-05-07T08:55:15;15.45;;;11.00;;
35380;SDS011;21486;51.916;8.378;2023-05-07T08:57:42;12.85;;;10.38;;
35380;SDS011;21486;51.916;8.378;2023-05-07T09:00:07;13.38;;;10.07;;
35380;SDS011;21486;51.916;8.378;2023-05-07T09:02:35;14.30;;;10.50;;
35380;SDS011;21486;51.916;8.378;2023-05-07T09:05:01;10.63;;;8.63;;
35380;SDS011;21486;51.916;8.378;2023-05-07T09:07:28;13.45;;;9.60;;
35380;SDS011;21486;51.916;8.378;2023-05-07T09:09:55;12.77;;;9.20;;
35380;SDS011;21486;51.916;8.378;2023-05-07T09:12:21;11.77;;;8.63;;
35380;SDS011;21486;51.916;8.378;2023-05-07T09:14:47;12.50;;;9.37;;
35380;SDS011;21486;51.916;8.378;2023-05-07T09:17:15;12.40;;;9.10;;
35380;SDS011;21486;51.916;8.378;2023-05-07T09:19:42;11.02;;;8.25;;
35380;SDS011;21486;51.916;8.378;2023-05-07T09:22:11;10.68;;;8.63;;
35380;SDS011;21486;51.916;8.378;2023-05-07T09:24:37;13.55;;;9.95;;
35380;SDS011;21486;51.916;8.378;2023-05-07T09:27:04;13.77;;;9.52;;
35380;SDS011;21486;51.916;8.378;2023-05-07T09:29:30;13.05;;;9.40;;
35380;SDS011;21486;51.916;8.378;2023-05-07T09:32:03;11.88;;;8.93;;
35380;SDS011;21486;51.916;8.378;2023-05-07T09:34:30;11.23;;;8.48;;
35380;SDS011;21486;51.916;8.378;2023-05-07T09:36:58;11.23;;;9.07;;
35380;SDS011;21486;51.916;8.378;2023-05-07T09:39:25;11.10;;;8.52;;
35380;SDS011;21486;51.916;8.378;2023-05-07T09:41:51;11.05;;;8.98;;
35380;SDS011;21486;51.916;8.378;2023-05-07T09:44:19;20.05;;;14.32;;
35380;SDS011;21486;51.916;8.378;2023-05-07T09:46:46;14.48;;;10.35;;
35380;SDS011;21486;51.916;8.378;2023-05-07T09:49:20;10.85;;;8.90;;
35380;SDS011;21486;51.916;8.378;2023-05-07T09:51:48;12.57;;;9.40;;
35380;SDS011;21486;51.916;8.378;2023-05-07T09:54:15;10.17;;;8.37;;
35380;SDS011;21486;51.916;8.378;2023-05-07T09:56:42;12.18;;;9.15;;
35380;SDS011;21486;51.916;8.378;2023-05-07T09:59:13;13.32;;;9.20;;
35380;SDS011;21486;51.916;8.378;2023-05-07T10:01:40;10.80;;;8.93;;
35380;SDS011;21486;51.916;8.378;2023-05-07T10:04:07;14.05;;;10.05;;
35380;SDS011;21486;51.916;8.378;2023-05-07T10:06:34;15.30;;;11.02;;
35380;SDS011;21486;51.916;8.378;2023-05-07T10:09:00;12.07;;;9.15;;
35380;SDS011;21486;51.916;8.378;2023-05-07T10:11:26;13.48;;;9.32;;
35380;SDS011;21486;51.916;8.378;2023-05-07T10:13:53;13.90;;;9.55;;
35380;SDS011;21486;51.916;8.378;2023-05-07T10:16:19;12.10;;;9.52;;
35380;SDS011;21486;51.916;8.378;2023-05-07T10:18:46;14.90;;;9.80;;
35380;SDS011;21486;51.916;8.378;2023-05-07T10:21:16;20.77;;;13.10;;
35380;SDS011;21486;51.916;8.378;2023-05-07T10:24:05;12.32;;;9.23;;
35380;SDS011;21486;51.916;8.378;2023-05-07T10:26:31;12.77;;;8.68;;
35380;SDS011;21486;51.916;8.378;2023-05-07T10:28:59;11.13;;;8.85;;
35380;SDS011;21486;51.916;8.378;2023-05-07T10:33:58;13.32;;;8.77;;
35380;SDS011;21486;51.916;8.378;2023-05-07T10:36:25;12.32;;;8.70;;
35380;SDS011;21486;51.916;8.378;2023-05-07T10:38:51;11.45;;;8.80;;
35380;SDS011;21486;51.916;8.378;2023-05-07T10:41:17;14.10;;;9.88;;
35380;SDS011;21486;51.916;8.378;2023-05-07T10:43:44;13.30;;;9.32;;
35380;SDS011;21486;51.916;8.378;2023-05-07T10:51:31;14.60;;;9.43;;
35380;SDS011;21486;51.916;8.378;2023-05-07T10:56:36;12.20;;;9.43;;
35380;SDS011;21486;51.916;8.378;2023-05-07T11:01:53;12.20;;;9.35;;
35380;SDS011;21486;51.916;8.378;2023-05-07T11:04:23;12.45;;;9.60;;
35380;SDS011;21486;51.916;8.378;2023-05-07T11:12:15;15.20;;;11.05;;
35380;SDS011;21486;51.916;8.378;2023-05-07T11:17:07;11.17;;;8.97;;
35380;SDS011;21486;51.916;8.378;2023-05-07T11:19:53;10.95;;;9.10;;
35380;SDS011;21486;51.916;8.378;2023-05-07T11:22:53;13.18;;;10.13;;
35380;SDS011;21486;51.916;8.378;2023-05-07T11:25:16;18.88;;;12.07;;
35380;SDS011;21486;51.916;8.378;2023-05-07T11:27:46;11.82;;;9.10;;
35380;SDS011;21486;51.916;8.378;2023-05-07T11:30:18;14.45;;;9.95;;
35380;SDS011;21486;51.916;8.378;2023-05-07T11:32:46;24.17;;;17.15;;
35380;SDS011;21486;51.916;8.378;2023-05-07T11:35:12;13.90;;;9.95;;
35380;SDS011;21486;51.916;8.378;2023-05-07T11:37:40;13.00;;;9.63;;
35380;SDS011;21486;51.916;8.378;2023-05-07T11:40:07;11.07;;;8.52;;
35380;SDS011;21486;51.916;8.378;2023-05-07T11:42:34;12.40;;;8.15;;
35380;SDS011;21486;51.916;8.378;2023-05-07T11:45:02;10.95;;;8.07;;
35380;SDS011;21486;51.916;8.378;2023-05-07T11:47:31;11.45;;;6.88;;
35380;SDS011;21486;51.916;8.378;2023-05-07T11:50:01;11.50;;;7.63;;
35380;SDS011;21486;51.916;8.378;2023-05-07T11:52:28;10.27;;;7.60;;
35380;SDS011;21486;51.916;8.378;2023-05-07T11:54:57;15.60;;;10.85;;
35380;SDS011;21486;51.916;8.378;2023-05-07T11:57:24;9.43;;;7.25;;
35380;SDS011;21486;51.916;8.378;2023-05-07T11:59:57;9.98;;;6.90;;
35380;SDS011;21486;51.916;8.378;2023-05-07T12:02:24;8.43;;;6.50;;
35380;SDS011;21486;51.916;8.378;2023-05-07T12:04:53;10.18;;;6.60;;
35380;SDS011;21486;51.916;8.378;2023-05-07T12:07:19;9.00;;;6.75;;
35380;SDS011;21486;51.916;8.378;2023-05-07T12:09:45;13.20;;;8.63;;
35380;SDS011;21486;51.916;8.378;2023-05-07T12:12:11;8.75;;;7.13;;
35380;SDS011;21486;51.916;8.378;2023-05-07T12:14:45;8.85;;;7.10;;
35380;SDS011;21486;51.916;8.378;2023-05-07T12:17:11;7.63;;;5.72;;
35380;SDS011;21486;51.916;8.378;2023-05-07T12:19:39;8.93;;;6.85;;
35380;SDS011;21486;51.916;8.378;2023-05-07T12:22:09;8.75;;;6.18;;
35380;SDS011;21486;51.916;8.378;2023-05-07T12:24:48;7.70;;;5.95;;
35380;SDS011;21486;51.916;8.378;2023-05-07T12:27:15;7.60;;;6.10;;
35380;SDS011;21486;51.916;8.378;2023-05-07T12:29:46;7.38;;;6.00;;
35380;SDS011;21486;51.916;8.378;2023-05-07T12:32:15;7.45;;;5.65;;
35380;SDS011;21486;51.916;8.378;2023-05-07T12:34:41;7.47;;;5.97;;
35380;SDS011;21486;51.916;8.378;2023-05-07T12:37:07;7.65;;;5.50;;
35380;SDS011;21486;51.916;8.378;2023-05-07T12:39:33;7.50;;;5.70;;
35380;SDS011;21486;51.916;8.378;2023-05-07T12:41:58;8.23;;;6.20;;
35380;SDS011;21486;51.916;8.378;2023-05-07T12:44:25;24.25;;;14.07;;
35380;SDS011;21486;51.916;8.378;2023-05-07T12:46:55;14.73;;;9.50;;
35380;SDS011;21486;51.916;8.378;2023-05-07T12:49:20;16.37;;;9.70;;
35380;SDS011;21486;51.916;8.378;2023-05-07T12:51:46;15.35;;;10.27;;
35380;SDS011;21486;51.916;8.378;2023-05-07T12:54:13;13.85;;;8.30;;
35380;SDS011;21486;51.916;8.378;2023-05-07T12:56:39;8.20;;;5.93;;
35380;SDS011;21486;51.916;8.378;2023-05-07T12:59:05;6.63;;;4.82;;
35380;SDS011;21486;51.916;8.378;2023-05-07T13:01:30;11.23;;;6.43;;
35380;SDS011;21486;51.916;8.378;2023-05-07T13:04:00;8.23;;;5.90;;
35380;SDS011;21486;51.916;8.378;2023-05-07T13:06:26;5.60;;;4.43;;
35380;SDS011;21486;51.916;8.378;2023-05-07T13:08:51;8.23;;;4.93;;
35380;SDS011;21486;51.916;8.378;2023-05-07T13:11:17;6.65;;;4.55;;
35380;SDS011;21486;51.916;8.378;2023-05-07T13:13:43;7.40;;;4.57;;
35380;SDS011;21486;51.916;8.378;2023-05-07T13:16:09;5.57;;;4.60;;
35380;SDS011;21486;51.916;8.378;2023-05-07T13:18:36;5.00;;;3.95;;
35380;SDS011;21486;51.916;8.378;2023-05-07T13:21:03;6.97;;;4.80;;
35380;SDS011;21486;51.916;8.378;2023-05-07T13:23:29;6.53;;;4.80;;
35380;SDS011;21486;51.916;8.378;2023-05-07T13:25:55;7.05;;;4.35;;
35380;SDS011;21486;51.916;8.378;2023-05-07T13:28:21;8.70;;;4.55;;
35380;SDS011;21486;51.916;8.378;2023-05-07T13:30:47;8.00;;;5.70;;
35380;SDS011;21486;51.916;8.378;2023-05-07T13:33:13;11.55;;;7.45;;
35380;SDS011;21486;51.916;8.378;2023-05-07T13:35:38;5.97;;;4.65;;
35380;SDS011;21486;51.916;8.378;2023-05-07T13:38:05;5.60;;;4.33;;
35380;SDS011;21486;51.916;8.378;2023-05-07T13:40:31;6.80;;;4.80;;
35380;SDS011;21486;51.916;8.378;2023-05-07T13:42:57;7.75;;;5.05;;
35380;SDS011;21486;51.916;8.378;2023-05-07T13:45:23;13.02;;;7.50;;
35380;SDS011;21486;51.916;8.378;2023-05-07T13:47:50;9.40;;;5.97;;
35380;SDS011;21486;51.916;8.378;2023-05-07T13:50:16;7.95;;;5.28;;
35380;SDS011;21486;51.916;8.378;2023-05-07T13:52:42;14.55;;;8.30;;
35380;SDS011;21486;51.916;8.378;2023-05-07T13:55:18;10.35;;;6.50;;
35380;SDS011;21486;51.916;8.378;2023-05-07T13:57:47;7.63;;;4.45;;
35380;SDS011;21486;51.916;8.378;2023-05-07T14:00:19;7.80;;;3.93;;
35380;SDS011;21486;51.916;8.378;2023-05-07T14:02:45;5.20;;;4.10;;
35380;SDS011;21486;51.916;8.378;2023-05-07T14:05:10;8.75;;;4.60;;
35380;SDS011;21486;51.916;8.378;2023-05-07T14:07:36;15.77;;;9.50;;
35380;SDS011;21486;51.916;8.378;2023-05-07T14:10:02;8.53;;;5.20;;
35380;SDS011;21486;51.916;8.378;2023-05-07T14:12:27;7.40;;;4.97;;
35380;SDS011;21486;51.916;8.378;2023-05-07T14:14:53;5.97;;;3.95;;
35380;SDS011;21486;51.916;8.378;2023-05-07T14:17:19;7.83;;;4.73;;
35380;SDS011;21486;51.916;8.378;2023-05-07T14:19:45;9.67;;;6.53;;
35380;SDS011;21486;51.916;8.378;2023-05-07T14:22:10;7.90;;;4.73;;
35380;SDS011;21486;51.916;8.378;2023-05-07T14:24:38;15.07;;;8.95;;
35380;SDS011;21486;51.916;8.378;2023-05-07T14:27:04;14.65;;;7.95;;
35380;SDS011;21486;51.916;8.378;2023-05-07T14:29:30;12.02;;;6.20;;
35380;SDS011;21486;51.916;8.378;2023-05-07T14:31:56;13.05;;;8.00;;
35380;SDS011;21486;51.916;8.378;2023-05-07T14:34:21;7.37;;;4.80;;
35380;SDS011;21486;51.916;8.378;2023-05-07T14:36:47;5.28;;;4.03;;
35380;SDS011;21486;51.916;8.378;2023-05-07T14:39:12;7.80;;;4.20;;
35380;SDS011;21486;51.916;8.378;2023-05-07T14:41:38;4.83;;;3.90;;
35380;SDS011;21486;51.916;8.378;2023-05-07T14:44:03;5.90;;;4.07;;
35380;SDS011;21486;51.916;8.378;2023-05-07T14:46:29;7.80;;;4.47;;
35380;SDS011;21486;51.916;8.378;2023-05-07T14:48:55;7.28;;;4.60;;
35380;SDS011;21486;51.916;8.378;2023-05-07T14:51:22;5.35;;;4.20;;
35380;SDS011;21486;51.916;8.378;2023-05-07T14:53:49;5.22;;;3.92;;
35380;SDS011;21486;51.916;8.378;2023-05-07T14:56:15;5.97;;;4.13;;
35380;SDS011;21486;51.916;8.378;2023-05-07T14:58:42;6.50;;;4.38;;
35380;SDS011;21486;51.916;8.378;2023-05-07T15:01:08;5.95;;;4.47;;
35380;SDS011;21486;51.916;8.378;2023-05-07T15:03:34;6.30;;;4.68;;
35380;SDS011;21486;51.916;8.378;2023-05-07T15:05:59;6.05;;;4.85;;
35380;SDS011;21486;51.916;8.378;2023-05-07T15:08:25;9.77;;;5.03;;
35380;SDS011;21486;51.916;8.378;2023-05-07T15:10:51;7.32;;;4.60;;
35380;SDS011;21486;51.916;8.378;2023-05-07T15:13:17;5.32;;;3.90;;
35380;SDS011;21486;51.916;8.378;2023-05-07T15:15:42;6.72;;;4.63;;
35380;SDS011;21486;51.916;8.378;2023-05-07T15:18:09;6.47;;;4.97;;
35380;SDS011;21486;51.916;8.378;2023-05-07T15:20:35;7.53;;;5.40;;